sensor_id;sensor_type;location;lat;lon;timestamp;temperature;humidity
65369;HTU21D;51970;53.484;49.488;2022-09-09T00:02:27;10.23;80.94
65369;HTU21D;51970;53.484;49.488;2022-09-09T00:05:14;10.25;81.02
65369;HTU21D;51970;53.484;49.488;2022-09-09T00:07:52;10.30;80.93
65369;HTU21D;51970;53.484;49.488;2022-09-09T00:10:37;10.33;81.39
65369;HTU21D;51970;53.484;49.488;2022-09-09T00:16:38;10.28;81.05
65369;HTU21D;51970;53.484;49.488;2022-09-09T00:22:24;10.25;82.06
65369;HTU21D;51970;53.484;49.488;2022-09-09T00:25:26;10.18;81.91
65369;HTU21D;51970;53.484;49.488;2022-09-09T00:27:59;10.21;82.36
65369;HTU21D;51970;53.484;49.488;2022-09-09T00:30:34;10.19;83.32
65369;HTU21D;51970;53.484;49.488;2022-09-09T00:33:11;10.18;82.43
65369;HTU21D;51970;53.484;49.488;2022-09-09T00:35:48;10.15;82.33
65369;HTU21D;51970;53.484;49.488;2022-09-09T00:39:02;10.12;82.63
65369;HTU21D;51970;53.484;49.488;2022-09-09T00:41:41;10.12;82.81
65369;HTU21D;51970;53.484;49.488;2022-09-09T00:47:25;10.07;82.64
65369;HTU21D;51970;53.484;49.488;2022-09-09T00:58:16;10.03;82.76
65369;HTU21D;51970;53.484;49.488;2022-09-09T01:00:56;9.97;82.68
65369;HTU21D;51970;53.484;49.488;2022-09-09T01:06:21;9.85;83.12
65369;HTU21D;51970;53.484;49.488;2022-09-09T01:17:31;9.78;83.99
65369;HTU21D;51970;53.484;49.488;2022-09-09T01:20:10;9.75;83.94
65369;HTU21D;51970;53.484;49.488;2022-09-09T01:28:22;9.74;83.86
65369;HTU21D;51970;53.484;49.488;2022-09-09T01:30:57;9.71;84.01
65369;HTU21D;51970;53.484;49.488;2022-09-09T01:33:29;9.67;84.07
65369;HTU21D;51970;53.484;49.488;2022-09-09T01:36:05;9.68;83.93
65369;HTU21D;51970;53.484;49.488;2022-09-09T01:38:39;9.63;84.14
65369;HTU21D;51970;53.484;49.488;2022-09-09T01:41:11;9.61;84.45
65369;HTU21D;51970;53.484;49.488;2022-09-09T01:43:42;9.59;84.50
65369;HTU21D;51970;53.484;49.488;2022-09-09T01:46:14;9.57;84.52
65369;HTU21D;51970;53.484;49.488;2022-09-09T01:48:47;9.57;84.32
65369;HTU21D;51970;53.484;49.488;2022-09-09T01:51:18;9.57;84.52
65369;HTU21D;51970;53.484;49.488;2022-09-09T01:53:50;9.59;84.49
65369;HTU21D;51970;53.484;49.488;2022-09-09T02:03:59;9.56;84.45
65369;HTU21D;51970;53.484;49.488;2022-09-09T02:06:37;9.59;84.54
65369;HTU21D;51970;53.484;49.488;2022-09-09T02:09:11;9.57;84.77
65369;HTU21D;51970;53.484;49.488;2022-09-09T02:11:46;9.59;84.61
65369;HTU21D;51970;53.484;49.488;2022-09-09T02:14:23;9.63;84.26
65369;HTU21D;51970;53.484;49.488;2022-09-09T02:17:10;9.61;84.52
65369;HTU21D;51970;53.484;49.488;2022-09-09T02:19:47;9.64;84.59
65369;HTU21D;51970;53.484;49.488;2022-09-09T02:22:22;9.66;85.00
65369;HTU21D;51970;53.484;49.488;2022-09-09T02:24:56;9.66;84.94
65369;HTU21D;51970;53.484;49.488;2022-09-09T02:27:29;9.66;84.65
65369;HTU21D;51970;53.484;49.488;2022-09-09T02:30:02;9.69;84.61
65369;HTU21D;51970;53.484;49.488;2022-09-09T02:32:35;9.75;83.88
65369;HTU21D;51970;53.484;49.488;2022-09-09T02:35:11;9.75;83.87
65369;HTU21D;51970;53.484;49.488;2022-09-09T02:37:44;9.79;84.35
65369;HTU21D;51970;53.484;49.488;2022-09-09T02:40:19;9.77;84.13
65369;HTU21D;51970;53.484;49.488;2022-09-09T02:42:51;9.81;84.87
65369;HTU21D;51970;53.484;49.488;2022-09-09T02:45:29;9.85;85.26
65369;HTU21D;51970;53.484;49.488;2022-09-09T02:48:18;9.86;85.53
65369;HTU21D;51970;53.484;49.488;2022-09-09T02:51:07;9.83;84.19
65369;HTU21D;51970;53.484;49.488;2022-09-09T02:56:49;9.94;83.36
65369;HTU21D;51970;53.484;49.488;2022-09-09T02:59:22;10.03;82.63
65369;HTU21D;51970;53.484;49.488;2022-09-09T03:01:55;10.09;83.50
65369;HTU21D;51970;53.484;49.488;2022-09-09T03:04:27;10.11;83.07
65369;HTU21D;51970;53.484;49.488;2022-09-09T03:06:59;10.10;82.47
65369;HTU21D;51970;53.484;49.488;2022-09-09T03:09:30;10.18;83.20
65369;HTU21D;51970;53.484;49.488;2022-09-09T03:12:02;10.21;82.56
65369;HTU21D;51970;53.484;49.488;2022-09-09T03:14:35;10.26;81.89
65369;HTU21D;51970;53.484;49.488;2022-09-09T03:17:06;10.35;82.42
65369;HTU21D;51970;53.484;49.488;2022-09-09T03:19:37;10.36;82.42
65369;HTU21D;51970;53.484;49.488;2022-09-09T03:22:10;10.28;81.33
65369;HTU21D;51970;53.484;49.488;2022-09-09T03:24:42;10.29;82.08
65369;HTU21D;51970;53.484;49.488;2022-09-09T03:27:13;10.26;82.07
65369;HTU21D;51970;53.484;49.488;2022-09-09T03:29:46;10.24;81.18
65369;HTU21D;51970;53.484;49.488;2022-09-09T03:32:17;10.20;81.51
65369;HTU21D;51970;53.484;49.488;2022-09-09T03:34:49;10.19;81.77
65369;HTU21D;51970;53.484;49.488;2022-09-09T03:37:23;10.24;82.40
65369;HTU21D;51970;53.484;49.488;2022-09-09T03:39:54;10.24;81.33
65369;HTU21D;51970;53.484;49.488;2022-09-09T03:42:25;10.26;81.57
65369;HTU21D;51970;53.484;49.488;2022-09-09T03:44:57;10.33;81.18
65369;HTU21D;51970;53.484;49.488;2022-09-09T03:47:28;10.45;81.14
65369;HTU21D;51970;53.484;49.488;2022-09-09T03:50:01;10.62;80.14
65369;HTU21D;51970;53.484;49.488;2022-09-09T03:52:35;10.92;79.04
65369;HTU21D;51970;53.484;49.488;2022-09-09T03:55:07;11.28;78.09
65369;HTU21D;51970;53.484;49.488;2022-09-09T03:57:38;11.67;77.17
65369;HTU21D;51970;53.484;49.488;2022-09-09T04:00:10;12.04;75.50
65369;HTU21D;51970;53.484;49.488;2022-09-09T04:02:41;12.30;74.72
65369;HTU21D;51970;53.484;49.488;2022-09-09T04:05:14;12.28;73.34
65369;HTU21D;51970;53.484;49.488;2022-09-09T04:07:46;12.25;73.55
65369;HTU21D;51970;53.484;49.488;2022-09-09T04:10:18;12.19;73.61
65369;HTU21D;51970;53.484;49.488;2022-09-09T04:12:49;12.03;74.09
65369;HTU21D;51970;53.484;49.488;2022-09-09T04:15:20;11.88;74.79
65369;HTU21D;51970;53.484;49.488;2022-09-09T04:17:52;11.82;75.12
65369;HTU21D;51970;53.484;49.488;2022-09-09T04:20:23;11.72;76.27
65369;HTU21D;51970;53.484;49.488;2022-09-09T04:22:54;11.84;75.69
65369;HTU21D;51970;53.484;49.488;2022-09-09T04:25:26;11.91;75.21
65369;HTU21D;51970;53.484;49.488;2022-09-09T04:27:57;11.89;74.79
65369;HTU21D;51970;53.484;49.488;2022-09-09T04:30:29;11.91;74.86
65369;HTU21D;51970;53.484;49.488;2022-09-09T04:33:00;11.85;74.49
65369;HTU21D;51970;53.484;49.488;2022-09-09T04:35:31;11.91;74.47
65369;HTU21D;51970;53.484;49.488;2022-09-09T04:38:03;11.82;74.94
65369;HTU21D;51970;53.484;49.488;2022-09-09T04:40:35;11.88;74.41
65369;HTU21D;51970;53.484;49.488;2022-09-09T04:43:06;11.77;74.67
65369;HTU21D;51970;53.484;49.488;2022-09-09T04:45:37;11.75;74.77
65369;HTU21D;51970;53.484;49.488;2022-09-09T04:48:10;11.91;74.29
65369;HTU21D;51970;53.484;49.488;2022-09-09T04:50:41;12.28;72.51
65369;HTU21D;51970;53.484;49.488;2022-09-09T04:53:13;12.59;71.06
65369;HTU21D;51970;53.484;49.488;2022-09-09T04:55:44;12.70;70.23
65369;HTU21D;51970;53.484;49.488;2022-09-09T04:58:15;12.81;69.94
65369;HTU21D;51970;53.484;49.488;2022-09-09T05:00:46;13.33;69.04
65369;HTU21D;51970;53.484;49.488;2022-09-09T05:03:18;13.48;67.77
65369;HTU21D;51970;53.484;49.488;2022-09-09T05:05:50;13.89;66.88
65369;HTU21D;51970;53.484;49.488;2022-09-09T05:08:21;14.23;65.12
65369;HTU21D;51970;53.484;49.488;2022-09-09T05:10:53;14.26;64.56
65369;HTU21D;51970;53.484;49.488;2022-09-09T05:13:26;14.03;64.76
65369;HTU21D;51970;53.484;49.488;2022-09-09T05:15:58;13.71;66.31
65369;HTU21D;51970;53.484;49.488;2022-09-09T05:18:30;13.61;65.56
65369;HTU21D;51970;53.484;49.488;2022-09-09T05:21:01;13.45;66.48
65369;HTU21D;51970;53.484;49.488;2022-09-09T05:23:33;13.34;66.80
65369;HTU21D;51970;53.484;49.488;2022-09-09T05:26:06;12.96;68.07
65369;HTU21D;51970;53.484;49.488;2022-09-09T05:28:38;12.87;69.01
65369;HTU21D;51970;53.484;49.488;2022-09-09T05:31:10;12.64;69.26
65369;HTU21D;51970;53.484;49.488;2022-09-09T05:33:46;12.29;70.95
65369;HTU21D;51970;53.484;49.488;2022-09-09T05:36:20;12.31;71.71
65369;HTU21D;51970;53.484;49.488;2022-09-09T05:38:52;12.45;70.79
65369;HTU21D;51970;53.484;49.488;2022-09-09T05:41:24;12.62;70.79
65369;HTU21D;51970;53.484;49.488;2022-09-09T05:43:56;12.71;69.73
65369;HTU21D;51970;53.484;49.488;2022-09-09T05:46:27;12.75;70.13
65369;HTU21D;51970;53.484;49.488;2022-09-09T05:48:58;13.00;69.79
65369;HTU21D;51970;53.484;49.488;2022-09-09T05:51:29;13.15;68.20
65369;HTU21D;51970;53.484;49.488;2022-09-09T05:54:01;13.01;68.37
65369;HTU21D;51970;53.484;49.488;2022-09-09T05:56:32;12.84;67.98
65369;HTU21D;51970;53.484;49.488;2022-09-09T05:59:03;12.77;68.78
65369;HTU21D;51970;53.484;49.488;2022-09-09T06:01:36;12.81;68.52
65369;HTU21D;51970;53.484;49.488;2022-09-09T06:04:11;12.69;68.82
65369;HTU21D;51970;53.484;49.488;2022-09-09T06:06:43;12.60;69.55
65369;HTU21D;51970;53.484;49.488;2022-09-09T06:09:14;12.75;70.07
65369;HTU21D;51970;53.484;49.488;2022-09-09T06:11:46;12.92;68.14
65369;HTU21D;51970;53.484;49.488;2022-09-09T06:14:17;12.86;66.37
65369;HTU21D;51970;53.484;49.488;2022-09-09T06:16:49;13.09;67.15
65369;HTU21D;51970;53.484;49.488;2022-09-09T06:19:20;13.22;66.31
65369;HTU21D;51970;53.484;49.488;2022-09-09T06:21:51;13.49;65.50
65369;HTU21D;51970;53.484;49.488;2022-09-09T06:24:22;13.59;64.94
65369;HTU21D;51970;53.484;49.488;2022-09-09T06:26:54;13.38;65.58
65369;HTU21D;51970;53.484;49.488;2022-09-09T06:29:25;13.31;66.23
65369;HTU21D;51970;53.484;49.488;2022-09-09T06:31:56;13.02;66.49
65369;HTU21D;51970;53.484;49.488;2022-09-09T06:34:29;12.72;67.52
65369;HTU21D;51970;53.484;49.488;2022-09-09T06:37:01;12.41;67.96
65369;HTU21D;51970;53.484;49.488;2022-09-09T06:39:32;12.03;75.18
65369;HTU21D;51970;53.484;49.488;2022-09-09T06:42:03;11.63;81.14
65369;HTU21D;51970;53.484;49.488;2022-09-09T06:44:35;10.85;87.74
65369;HTU21D;51970;53.484;49.488;2022-09-09T06:47:07;10.36;90.72
65369;HTU21D;51970;53.484;49.488;2022-09-09T06:49:38;10.26;92.05
65369;HTU21D;51970;53.484;49.488;2022-09-09T06:52:09;10.00;91.15
65369;HTU21D;51970;53.484;49.488;2022-09-09T06:54:41;9.92;92.14
65369;HTU21D;51970;53.484;49.488;2022-09-09T06:57:12;9.86;92.46
65369;HTU21D;51970;53.484;49.488;2022-09-09T06:59:43;9.85;92.85
65369;HTU21D;51970;53.484;49.488;2022-09-09T07:02:15;9.84;93.14
65369;HTU21D;51970;53.484;49.488;2022-09-09T07:04:48;10.04;93.46
65369;HTU21D;51970;53.484;49.488;2022-09-09T07:07:22;10.22;93.53
65369;HTU21D;51970;53.484;49.488;2022-09-09T07:09:55;10.41;93.45
65369;HTU21D;51970;53.484;49.488;2022-09-09T07:12:26;10.67;93.02
65369;HTU21D;51970;53.484;49.488;2022-09-09T07:14:57;11.04;92.98
65369;HTU21D;51970;53.484;49.488;2022-09-09T07:17:29;11.29;91.69
65369;HTU21D;51970;53.484;49.488;2022-09-09T07:20:01;11.56;91.20
65369;HTU21D;51970;53.484;49.488;2022-09-09T07:22:34;11.58;89.18
65369;HTU21D;51970;53.484;49.488;2022-09-09T07:25:06;11.73;88.21
65369;HTU21D;51970;53.484;49.488;2022-09-09T07:27:38;11.89;88.11
65369;HTU21D;51970;53.484;49.488;2022-09-09T07:30:10;12.15;87.77
65369;HTU21D;51970;53.484;49.488;2022-09-09T07:32:41;12.45;85.43
65369;HTU21D;51970;53.484;49.488;2022-09-09T07:35:12;12.46;84.87
65369;HTU21D;51970;53.484;49.488;2022-09-09T07:37:44;12.69;83.34
65369;HTU21D;51970;53.484;49.488;2022-09-09T07:40:16;12.62;79.81
65369;HTU21D;51970;53.484;49.488;2022-09-09T07:42:47;12.69;74.82
65369;HTU21D;51970;53.484;49.488;2022-09-09T07:45:18;12.86;75.49
65369;HTU21D;51970;53.484;49.488;2022-09-09T07:47:50;13.00;74.86
65369;HTU21D;51970;53.484;49.488;2022-09-09T07:50:21;13.10;73.41
65369;HTU21D;51970;53.484;49.488;2022-09-09T07:52:53;13.62;72.93
65369;HTU21D;51970;53.484;49.488;2022-09-09T07:55:24;14.20;68.76
65369;HTU21D;51970;53.484;49.488;2022-09-09T07:57:56;14.56;65.08
65369;HTU21D;51970;53.484;49.488;2022-09-09T08:00:27;14.68;65.30
65369;HTU21D;51970;53.484;49.488;2022-09-09T08:02:59;14.69;64.52
65369;HTU21D;51970;53.484;49.488;2022-09-09T08:05:31;14.37;65.82
65369;HTU21D;51970;53.484;49.488;2022-09-09T08:08:03;13.83;65.62
65369;HTU21D;51970;53.484;49.488;2022-09-09T08:10:35;13.12;67.87
65369;HTU21D;51970;53.484;49.488;2022-09-09T08:13:06;12.88;68.65
65369;HTU21D;51970;53.484;49.488;2022-09-09T08:15:37;12.65;69.20
65369;HTU21D;51970;53.484;49.488;2022-09-09T08:18:09;12.55;70.15
65369;HTU21D;51970;53.484;49.488;2022-09-09T08:20:40;12.58;70.40
65369;HTU21D;51970;53.484;49.488;2022-09-09T08:23:13;12.84;70.76
65369;HTU21D;51970;53.484;49.488;2022-09-09T08:25:44;13.15;69.02
65369;HTU21D;51970;53.484;49.488;2022-09-09T08:28:16;13.48;68.65
65369;HTU21D;51970;53.484;49.488;2022-09-09T08:30:47;13.63;66.84
65369;HTU21D;51970;53.484;49.488;2022-09-09T08:33:19;13.79;66.96
65369;HTU21D;51970;53.484;49.488;2022-09-09T08:35:51;13.80;63.05
65369;HTU21D;51970;53.484;49.488;2022-09-09T08:38:23;13.47;61.37
65369;HTU21D;51970;53.484;49.488;2022-09-09T08:41:04;13.40;64.01
65369;HTU21D;51970;53.484;49.488;2022-09-09T08:43:37;13.60;61.31
65369;HTU21D;51970;53.484;49.488;2022-09-09T08:46:25;13.92;59.33
65369;HTU21D;51970;53.484;49.488;2022-09-09T08:51:55;13.49;61.85
65369;HTU21D;51970;53.484;49.488;2022-09-09T08:54:33;13.24;63.65
65369;HTU21D;51970;53.484;49.488;2022-09-09T08:57:13;13.46;64.13
65369;HTU21D;51970;53.484;49.488;2022-09-09T08:59:45;13.51;61.70
65369;HTU21D;51970;53.484;49.488;2022-09-09T09:02:24;13.32;60.20
65369;HTU21D;51970;53.484;49.488;2022-09-09T09:05:23;13.29;59.86
65369;HTU21D;51970;53.484;49.488;2022-09-09T09:08:30;13.75;63.00
65369;HTU21D;51970;53.484;49.488;2022-09-09T09:11:03;13.79;60.76
65369;HTU21D;51970;53.484;49.488;2022-09-09T09:18:49;13.94;57.92
65369;HTU21D;51970;53.484;49.488;2022-09-09T09:23:59;14.20;56.84
65369;HTU21D;51970;53.484;49.488;2022-09-09T09:26:34;14.51;56.80
65369;HTU21D;51970;53.484;49.488;2022-09-09T09:29:15;14.81;55.36
65369;HTU21D;51970;53.484;49.488;2022-09-09T09:31:53;15.01;54.70
65369;HTU21D;51970;53.484;49.488;2022-09-09T09:34:25;14.48;55.26
65369;HTU21D;51970;53.484;49.488;2022-09-09T09:36:58;14.34;56.05
65369;HTU21D;51970;53.484;49.488;2022-09-09T09:39:33;14.19;58.67
65369;HTU21D;51970;53.484;49.488;2022-09-09T09:42:11;14.28;60.20
65369;HTU21D;51970;53.484;49.488;2022-09-09T09:44:44;13.97;60.83
65369;HTU21D;51970;53.484;49.488;2022-09-09T09:47:22;13.50;60.64
65369;HTU21D;51970;53.484;49.488;2022-09-09T09:49:59;13.36;61.54
65369;HTU21D;51970;53.484;49.488;2022-09-09T09:52:32;13.49;59.86
65369;HTU21D;51970;53.484;49.488;2022-09-09T09:55:12;13.46;58.28
65369;HTU21D;51970;53.484;49.488;2022-09-09T09:57:45;13.17;58.56
65369;HTU21D;51970;53.484;49.488;2022-09-09T10:00:18;12.97;60.06
65369;HTU21D;51970;53.484;49.488;2022-09-09T10:02:51;12.93;60.61
65369;HTU21D;51970;53.484;49.488;2022-09-09T10:05:28;13.18;58.94
65369;HTU21D;51970;53.484;49.488;2022-09-09T10:16:36;13.53;59.32
65369;HTU21D;51970;53.484;49.488;2022-09-09T10:19:14;13.53;61.03
65369;HTU21D;51970;53.484;49.488;2022-09-09T10:28:10;14.12;56.34
65369;HTU21D;51970;53.484;49.488;2022-09-09T10:33:50;14.50;55.15
65369;HTU21D;51970;53.484;49.488;2022-09-09T10:36:26;14.80;54.62
65369;HTU21D;51970;53.484;49.488;2022-09-09T10:39:01;15.00;52.60
65369;HTU21D;51970;53.484;49.488;2022-09-09T10:41:57;15.14;53.36
65369;HTU21D;51970;53.484;49.488;2022-09-09T10:56:15;14.12;59.69
65369;HTU21D;51970;53.484;49.488;2022-09-09T10:59:09;13.88;59.86
65369;HTU21D;51970;53.484;49.488;2022-09-09T11:01:48;13.64;59.77
65369;HTU21D;51970;53.484;49.488;2022-09-09T11:04:25;13.59;59.67
65369;HTU21D;51970;53.484;49.488;2022-09-09T11:07:00;13.49;67.39
65369;HTU21D;51970;53.484;49.488;2022-09-09T11:09:40;13.38;68.04
65369;HTU21D;51970;53.484;49.488;2022-09-09T11:12:18;13.32;67.07
65369;HTU21D;51970;53.484;49.488;2022-09-09T11:14:59;13.58;67.13
65369;HTU21D;51970;53.484;49.488;2022-09-09T11:17:47;13.95;62.27
65369;HTU21D;51970;53.484;49.488;2022-09-09T11:20:20;14.05;60.50
65369;HTU21D;51970;53.484;49.488;2022-09-09T11:25:38;14.63;60.86
65369;HTU21D;51970;53.484;49.488;2022-09-09T11:42:31;14.37;56.29
65369;HTU21D;51970;53.484;49.488;2022-09-09T11:45:22;14.23;58.17
65369;HTU21D;51970;53.484;49.488;2022-09-09T11:47:57;14.10;59.81
65369;HTU21D;51970;53.484;49.488;2022-09-09T11:50:31;13.95;60.35
65369;HTU21D;51970;53.484;49.488;2022-09-09T11:53:14;13.74;60.83
65369;HTU21D;51970;53.484;49.488;2022-09-09T11:56:04;13.61;61.60
65369;HTU21D;51970;53.484;49.488;2022-09-09T11:58:53;13.32;61.42
65369;HTU21D;51970;53.484;49.488;2022-09-09T12:01:41;13.04;63.36
65369;HTU21D;51970;53.484;49.488;2022-09-09T12:12:38;12.77;63.95
65369;HTU21D;51970;53.484;49.488;2022-09-09T12:17:43;12.64;65.08
65369;HTU21D;51970;53.484;49.488;2022-09-09T12:20:22;12.55;65.66
65369;HTU21D;51970;53.484;49.488;2022-09-09T12:23:30;12.65;65.67
65369;HTU21D;51970;53.484;49.488;2022-09-09T12:34:42;13.17;66.43
65369;HTU21D;51970;53.484;49.488;2022-09-09T12:40:28;13.09;66.46
65369;HTU21D;51970;53.484;49.488;2022-09-09T12:43:00;13.01;66.38
65369;HTU21D;51970;53.484;49.488;2022-09-09T12:45:32;12.93;67.46
65369;HTU21D;51970;53.484;49.488;2022-09-09T12:48:09;12.88;67.59
65369;HTU21D;51970;53.484;49.488;2022-09-09T12:50:50;12.88;68.35
65369;HTU21D;51970;53.484;49.488;2022-09-09T12:53:26;12.85;67.06
65369;HTU21D;51970;53.484;49.488;2022-09-09T12:56:04;12.66;67.14
65369;HTU21D;51970;53.484;49.488;2022-09-09T12:58:38;12.77;68.20
65369;HTU21D;51970;53.484;49.488;2022-09-09T13:01:20;12.79;67.64
65369;HTU21D;51970;53.484;49.488;2022-09-09T13:03:52;12.51;68.65
65369;HTU21D;51970;53.484;49.488;2022-09-09T13:06:29;12.16;69.65
65369;HTU21D;51970;53.484;49.488;2022-09-09T13:09:01;12.01;70.42
65369;HTU21D;51970;53.484;49.488;2022-09-09T13:11:55;11.88;71.20
65369;HTU21D;51970;53.484;49.488;2022-09-09T13:14:33;11.82;71.70
65369;HTU21D;51970;53.484;49.488;2022-09-09T13:17:21;11.77;72.35
65369;HTU21D;51970;53.484;49.488;2022-09-09T13:19:53;11.61;73.23
65369;HTU21D;51970;53.484;49.488;2022-09-09T13:22:35;11.62;73.74
65369;HTU21D;51970;53.484;49.488;2022-09-09T13:27:55;11.83;73.30
65369;HTU21D;51970;53.484;49.488;2022-09-09T13:33:21;11.86;73.25
65369;HTU21D;51970;53.484;49.488;2022-09-09T13:35:56;11.86;73.46
65369;HTU21D;51970;53.484;49.488;2022-09-09T13:38:29;11.82;73.90
65369;HTU21D;51970;53.484;49.488;2022-09-09T13:41:09;11.77;73.34
65369;HTU21D;51970;53.484;49.488;2022-09-09T13:43:45;11.75;73.18
65369;HTU21D;51970;53.484;49.488;2022-09-09T13:51:44;11.71;70.75
65369;HTU21D;51970;53.484;49.488;2022-09-09T13:54:19;11.51;70.69
65369;HTU21D;51970;53.484;49.488;2022-09-09T13:56:51;11.32;73.70
65369;HTU21D;51970;53.484;49.488;2022-09-09T13:59:22;11.22;73.98
65369;HTU21D;51970;53.484;49.488;2022-09-09T14:01:55;11.15;73.70
65369;HTU21D;51970;53.484;49.488;2022-09-09T14:04:27;11.08;74.28
65369;HTU21D;51970;53.484;49.488;2022-09-09T14:06:58;11.07;74.70
65369;HTU21D;51970;53.484;49.488;2022-09-09T14:09:30;11.00;75.15
65369;HTU21D;51970;53.484;49.488;2022-09-09T14:12:01;10.95;75.47
65369;HTU21D;51970;53.484;49.488;2022-09-09T14:14:33;10.89;75.83
65369;HTU21D;51970;53.484;49.488;2022-09-09T14:17:04;10.85;76.25
65369;HTU21D;51970;53.484;49.488;2022-09-09T14:19:35;10.83;76.77
65369;HTU21D;51970;53.484;49.488;2022-09-09T14:22:08;10.81;77.23
65369;HTU21D;51970;53.484;49.488;2022-09-09T14:24:39;10.80;77.52
65369;HTU21D;51970;53.484;49.488;2022-09-09T14:27:10;10.80;77.71
65369;HTU21D;51970;53.484;49.488;2022-09-09T14:29:41;10.82;77.79
65369;HTU21D;51970;53.484;49.488;2022-09-09T14:32:15;10.79;77.95
65369;HTU21D;51970;53.484;49.488;2022-09-09T14:34:46;10.78;77.76
65369;HTU21D;51970;53.484;49.488;2022-09-09T14:37:20;10.75;77.82
65369;HTU21D;51970;53.484;49.488;2022-09-09T14:39:51;10.72;77.28
65369;HTU21D;51970;53.484;49.488;2022-09-09T14:42:23;10.66;77.21
65369;HTU21D;51970;53.484;49.488;2022-09-09T14:44:54;10.65;77.27
65369;HTU21D;51970;53.484;49.488;2022-09-09T14:47:25;10.65;77.28
65369;HTU21D;51970;53.484;49.488;2022-09-09T14:49:57;10.66;77.47
65369;HTU21D;51970;53.484;49.488;2022-09-09T14:52:30;10.64;77.52
65369;HTU21D;51970;53.484;49.488;2022-09-09T14:55:02;10.62;77.79
65369;HTU21D;51970;53.484;49.488;2022-09-09T14:57:33;10.57;78.13
65369;HTU21D;51970;53.484;49.488;2022-09-09T15:00:07;10.55;78.43
65369;HTU21D;51970;53.484;49.488;2022-09-09T15:02:39;10.56;78.64
65369;HTU21D;51970;53.484;49.488;2022-09-09T15:05:11;10.57;78.87
65369;HTU21D;51970;53.484;49.488;2022-09-09T15:07:42;10.59;78.98
65369;HTU21D;51970;53.484;49.488;2022-09-09T15:10:13;10.58;78.62
65369;HTU21D;51970;53.484;49.488;2022-09-09T15:12:45;10.56;78.69
65369;HTU21D;51970;53.484;49.488;2022-09-09T15:15:16;10.55;78.88
65369;HTU21D;51970;53.484;49.488;2022-09-09T15:17:48;10.53;78.58
65369;HTU21D;51970;53.484;49.488;2022-09-09T15:20:19;10.50;78.47
65369;HTU21D;51970;53.484;49.488;2022-09-09T15:22:50;10.49;77.80
65369;HTU21D;51970;53.484;49.488;2022-09-09T15:25:23;10.50;78.01
65369;HTU21D;51970;53.484;49.488;2022-09-09T15:27:54;10.52;77.98
65369;HTU21D;51970;53.484;49.488;2022-09-09T15:30:27;10.51;78.01
65369;HTU21D;51970;53.484;49.488;2022-09-09T15:32:58;10.46;78.16
65369;HTU21D;51970;53.484;49.488;2022-09-09T15:35:29;10.42;78.41
65369;HTU21D;51970;53.484;49.488;2022-09-09T15:38:04;10.39;78.74
65369;HTU21D;51970;53.484;49.488;2022-09-09T15:40:38;10.30;78.93
65369;HTU21D;51970;53.484;49.488;2022-09-09T15:43:10;10.26;79.43
65369;HTU21D;51970;53.484;49.488;2022-09-09T15:45:41;10.20;79.65
65369;HTU21D;51970;53.484;49.488;2022-09-09T15:48:13;10.15;80.05
65369;HTU21D;51970;53.484;49.488;2022-09-09T15:50:44;10.11;80.03
65369;HTU21D;51970;53.484;49.488;2022-09-09T15:53:15;10.08;80.35
65369;HTU21D;51970;53.484;49.488;2022-09-09T15:55:46;10.04;80.63
65369;HTU21D;51970;53.484;49.488;2022-09-09T15:58:18;10.01;80.63
65369;HTU21D;51970;53.484;49.488;2022-09-09T16:00:50;9.99;80.79
65369;HTU21D;51970;53.484;49.488;2022-09-09T16:03:22;10.00;80.87
65369;HTU21D;51970;53.484;49.488;2022-09-09T16:05:53;10.03;80.93
65369;HTU21D;51970;53.484;49.488;2022-09-09T16:08:24;10.04;80.76
65369;HTU21D;51970;53.484;49.488;2022-09-09T16:10:56;10.04;80.91
65369;HTU21D;51970;53.484;49.488;2022-09-09T16:13:27;10.03;81.10
65369;HTU21D;51970;53.484;49.488;2022-09-09T16:15:58;9.99;81.32
65369;HTU21D;51970;53.484;49.488;2022-09-09T16:18:37;9.97;81.51
65369;HTU21D;51970;53.484;49.488;2022-09-09T16:21:17;9.99;81.37
65369;HTU21D;51970;53.484;49.488;2022-09-09T16:23:50;10.05;81.21
65369;HTU21D;51970;53.484;49.488;2022-09-09T16:26:22;10.04;81.20
65369;HTU21D;51970;53.484;49.488;2022-09-09T16:28:54;10.07;81.14
65369;HTU21D;51970;53.484;49.488;2022-09-09T16:31:26;10.09;81.22
65369;HTU21D;51970;53.484;49.488;2022-09-09T16:33:58;10.11;81.12
65369;HTU21D;51970;53.484;49.488;2022-09-09T16:36:32;10.13;81.04
65369;HTU21D;51970;53.484;49.488;2022-09-09T16:39:16;10.16;80.97
65369;HTU21D;51970;53.484;49.488;2022-09-09T16:41:48;10.19;80.94
65369;HTU21D;51970;53.484;49.488;2022-09-09T16:44:19;10.18;80.94
65369;HTU21D;51970;53.484;49.488;2022-09-09T16:46:51;10.19;81.04
65369;HTU21D;51970;53.484;49.488;2022-09-09T16:49:25;10.15;81.36
65369;HTU21D;51970;53.484;49.488;2022-09-09T16:51:59;10.10;82.96
65369;HTU21D;51970;53.484;49.488;2022-09-09T16:54:31;10.01;84.19
65369;HTU21D;51970;53.484;49.488;2022-09-09T16:57:02;9.95;85.42
65369;HTU21D;51970;53.484;49.488;2022-09-09T16:59:34;9.89;85.88
65369;HTU21D;51970;53.484;49.488;2022-09-09T17:02:05;9.86;85.45
65369;HTU21D;51970;53.484;49.488;2022-09-09T17:04:36;9.89;84.77
65369;HTU21D;51970;53.484;49.488;2022-09-09T17:07:07;9.93;84.58
65369;HTU21D;51970;53.484;49.488;2022-09-09T17:09:39;9.96;84.23
65369;HTU21D;51970;53.484;49.488;2022-09-09T17:12:10;9.99;83.85
65369;HTU21D;51970;53.484;49.488;2022-09-09T17:14:43;10.03;83.58
65369;HTU21D;51970;53.484;49.488;2022-09-09T17:17:14;10.04;83.10
65369;HTU21D;51970;53.484;49.488;2022-09-09T17:19:46;10.06;82.75
65369;HTU21D;51970;53.484;49.488;2022-09-09T17:22:18;10.04;82.33
65369;HTU21D;51970;53.484;49.488;2022-09-09T17:24:50;10.03;82.59
65369;HTU21D;51970;53.484;49.488;2022-09-09T17:27:21;10.03;82.28
65369;HTU21D;51970;53.484;49.488;2022-09-09T17:29:53;10.06;82.57
65369;HTU21D;51970;53.484;49.488;2022-09-09T17:32:24;10.04;82.24
65369;HTU21D;51970;53.484;49.488;2022-09-09T17:34:55;10.03;81.83
65369;HTU21D;51970;53.484;49.488;2022-09-09T17:37:26;10.03;82.20
65369;HTU21D;51970;53.484;49.488;2022-09-09T17:39:58;9.93;83.83
65369;HTU21D;51970;53.484;49.488;2022-09-09T17:42:30;9.81;84.97
65369;HTU21D;51970;53.484;49.488;2022-09-09T17:45:02;9.67;86.70
65369;HTU21D;51970;53.484;49.488;2022-09-09T17:47:33;9.62;87.12
65369;HTU21D;51970;53.484;49.488;2022-09-09T17:50:05;9.64;86.12
65369;HTU21D;51970;53.484;49.488;2022-09-09T17:52:37;9.67;85.80
65369;HTU21D;51970;53.484;49.488;2022-09-09T17:55:11;9.66;84.97
65369;HTU21D;51970;53.484;49.488;2022-09-09T17:57:42;9.67;84.22
65369;HTU21D;51970;53.484;49.488;2022-09-09T18:00:14;9.68;84.14
65369;HTU21D;51970;53.484;49.488;2022-09-09T18:02:45;9.71;83.78
65369;HTU21D;51970;53.484;49.488;2022-09-09T18:05:18;9.74;83.77